Tiempo atmosférico en la estación meteorológica de Telde, Centro Forestal Doramas, Las Palmas (344 m.)



Fecha
DESCASC
Temp. máxima en grados centígrados (hora)
DESCASC
Temp. mínima en grados centígrados (hora)
DESCASC
Temp. media en grados centígrados
DESCASC
Racha de viento máxima en m/sg (hora)
DESCASC
Velocidad máxima media en intervalos de 10 minutos(hora)
DESCASC
Precipitaciones diarias en mm
DESCASC
Precipitaciones de 00:00 a 06:00 en mm
DESCASC
Precipitaciones de 06:00 a 12:00 en mm
DESCASC
Precipitaciones de 12:00 a 18:00 en mm
DESCASC
Precipitaciones de 18:00 a 24:00 en mm
DESCASC
25-04-2019 21.9 (14:50) 13.8 (00:10) 17.8 11.39 (10:20) 6.67 (15:20) 0 0 0 0 0
24-04-2019 22.2 (14:10) 13.9 (23:50) 18.1 8.89 (12:20) 6.11 (12:20) 0 0 0 0 0
23-04-2019 21.9 (12:50) 14.7 (23:40) 18.3 14.44 (03:20) 7.78 (19:20) 0 0 0 0 0
22-04-2019 24.2 (16:00) 12.7 (00:00) 18.5 10.83 (01:20) 6.39 (17:20) 0 0 0 0 0
21-04-2019 21.2 (15:40) 14.2 (00:00) 17.7 12.78 (13:10) 7.5 (12:30) 0.2 0.2 0 0 0
20-04-2019 18.4 (16:00) 13.4 (00:00) 15.9 13.33 (02:50) 8.06 (01:30) 1 0 0.2 0.8 0
19-04-2019 19.7 (15:20) 14.1 (00:00) 16.9 13.61 (06:20) 8.61 (06:10) 0 0 0 0 0
18-04-2019 18.3 (17:20) 14.4 (00:00) 16.3 12.5 (11:20) 6.94 (11:20) 0 0 0 0 0
17-04-2019 19.5 (11:40) 12.7 (00:00) 16.1 9.17 (21:40) 6.11 (21:40) 0.8 0 0 0.8 0
16-04-2019 21.5 (15:30) 14.5 (00:00) 18 7.22 (12:50) 3.89 (15:50) 0 0 0 0 0
15-04-2019 21 (16:00) 12.9 (00:00) 16.9 10.83 (07:40) 6.94 (07:40) 0 0 0 0 0
14-04-2019 22.1 (17:10) 12.2 (00:00) 17.2 8.33 (00:30) 5.56 (00:30) 0 0 0 0 0
13-04-2019 22.2 (16:20) 14.4 (00:00) 18.3 10.83 (01:40) 6.67 (14:40) 0 0 0 0 0
12-04-2019 19.4 (16:10) 13.8 (00:00) 16.6 12.5 (16:40) 6.94 (14:30) -- 0 -- 0 0
11-04-2019 19.3 (15:30) 13.9 (00:00) 16.6 11.94 (22:50) 7.78 (22:50) 0 0 0 0 0
10-04-2019 19.5 (13:50) 13.6 (00:00) 16.6 11.39 (18:20) 6.67 (20:30) 0 0 0 0 0
09-04-2019 19.2 (12:20) 13.6 (00:00) 16.4 8.61 (12:40) 5.56 (00:50) 0.6 0 0 0.6 0
08-04-2019 18.5 (16:40) 14 (00:00) 16.3 9.17 (17:00) 6.11 (17:10) 0 0 0 0 0
07-04-2019 20.1 (12:20) 11 (00:00) 15.6 8.89 (16:00) 5.56 (17:20) 0 0 0 0 0
06-04-2019 18.4 (14:40) 12.8 (00:00) 15.6 13.33 (12:50) 7.22 (13:30) 1.2 1.2 0 0 0
05-04-2019 20.7 (16:20) 13.1 (00:00) 16.9 12.22 (15:00) 7.5 (16:50) 0 0 0 0 0
04-04-2019 18.9 (14:00) 11.4 (00:00) 15.1 11.39 (14:10) 6.94 (14:10) 0.4 0 0 0 0.4
03-04-2019 17.4 (15:50) 11.9 (00:00) 14.6 7.22 (13:00) 3.89 (13:00) 1.4 0 0 1 0.4
02-04-2019 20.2 (13:50) 12.3 (00:00) 16.3 9.17 (13:00) 5.28 (12:50) 2.4 0 0 0 2.4
01-04-2019 18 (10:30) 11.7 (00:00) 14.8 6.67 (11:30) 3.61 (11:50) 0.4 0 0 0.4 0
31-03-2019 19.1 (13:20) 10.4 (00:00) 14.8 7.22 (13:50) 4.17 (13:50) 0 0 0 0 0
30-03-2019 18.4 (11:50) 10.8 (00:00) 14.6 10 (13:40) 5.28 (12:20) 0 0 0 0 0
29-03-2019 18.3 (10:50) 10.9 (00:00) 14.6 7.78 (12:20) 5 (12:20) 12.4 0 0 12.4 0
28-03-2019 17.1 (11:20) 11.2 (00:00) 14.2 5.83 (04:30) 4.17 (01:50) 9.2 0 0 3.4 5.8
27-03-2019 21.2 (12:00) 12.6 (00:00) 16.9 7.5 (10:50) 4.17 (10:50) 13.6 0 0 13.6 0

Gráficas

Temp. máximas Temp. mínimas Temp. medias Precipitaciones Rachas de viento máximas Velocidades máximas media en intervalos de 10 minutos

Datos horarios

Fecha y hora oficial Temperatura (ºC) Velocidad del viento (km/h) Dirección del viento Racha (km/h) Dirección de racha Precipitación (mm) Presión (hPa) Tendencia (hPa) Humedad (%)
2019-04-25 23:00:00 16.2 13 Noroeste 31 Oeste 0 -- -- 62
2019-04-25 22:00:00 16.5 16 Oeste 30 Noroeste 0 -- -- 63
2019-04-25 21:00:00 16.9 20 Oeste 35 Oeste 0 -- -- 63
2019-04-25 20:00:00 17.4 13 Noroeste 32 Noroeste 0 -- -- 62
2019-04-25 19:00:00 19.5 14 Noroeste 40 Noroeste 0 -- -- 56
2019-04-25 18:00:00 19.9 23 Norte 35 Noroeste 0 -- -- 56
2019-04-25 17:00:00 20.1 23 Noroeste 38 Noroeste 0 -- -- 53
2019-04-25 16:00:00 20.8 24 Norte 37 Norte 0 -- -- 55
2019-04-25 15:00:00 21.7 18 Norte 33 Norte 0 -- -- 52
2019-04-25 14:00:00 21.1 16 Norte 37 Norte 0 -- -- 53
2019-04-25 13:00:00 20.1 19 Norte 36 Noroeste 0 -- -- 58
2019-04-25 12:00:00 19.4 17 Norte 40 Norte 0 -- -- 62
2019-04-25 11:00:00 18.9 22 Norte 41 Noroeste 0 -- -- 60
2019-04-25 10:00:00 17.1 22 Noroeste 36 Noroeste 0 -- -- 65
2019-04-25 09:00:00 15.8 13 Oeste 26 Noroeste 0 -- -- 69
2019-04-25 08:00:00 14.5 17 Oeste 27 Noroeste 0 -- -- 71
2019-04-25 07:00:00 14.4 17 Noroeste 34 Noroeste 0 -- -- 71
2019-04-25 06:00:00 14.3 13 Noroeste 33 Noroeste 0 -- -- 72
2019-04-25 05:00:00 14.4 13 Noroeste 37 Noroeste 0 -- -- 72
2019-04-25 04:00:00 14.2 14 Noroeste 32 Oeste 0 -- -- 75
2019-04-25 03:00:00 14.3 16 Noroeste 35 Noroeste 0 -- -- 75
2019-04-25 02:00:00 14.3 17 Noroeste 33 Noroeste 0 -- -- 76
2019-04-25 01:00:00 14.1 13 Noroeste 24 Noroeste 0 -- -- 76
2019-04-25 00:00:00 13.9 6 Noroeste 14 Noroeste 0 -- -- 74
2019-04-24 23:00:00 14.4 7 Noroeste 17 Noroeste 0 -- -- 75
2019-04-24 22:00:00 14.9 9 Noroeste 22 Noroeste 0 -- -- 76
2019-04-24 21:00:00 15.5 13 Noroeste 24 Noroeste 0 -- -- 74
2019-04-24 20:00:00 17.1 17 Noroeste 31 Noroeste 0 -- -- 67
2019-04-24 19:00:00 19 18 Norte 29 Noroeste 0 -- -- 62
2019-04-24 18:00:00 19.5 12 Norte 26 Nordeste 0 -- -- 62
2019-04-24 17:00:00 19.4 12 Norte 31 Norte 0 -- -- 64
2019-04-24 16:00:00 21.7 16 Noroeste 31 Noroeste 0 -- -- 55
2019-04-24 15:00:00 21.8 17 Norte 32 Norte 0 -- -- 57
2019-04-24 14:00:00 22.1 14 Norte 29 Norte 0 -- -- 55
2019-04-24 13:00:00 21.4 14 Norte 32 Norte 0 -- -- 52
2019-04-24 12:00:00 20.3 17 Norte 31 Norte 0 -- -- 54
2019-04-24 11:00:00 19 15 Noroeste 27 Norte 0 -- -- 57
2019-04-24 10:00:00 17.4 16 Noroeste 27 Noroeste 0 -- -- 65
2019-04-24 09:00:00 16 14 Oeste 26 Noroeste 0 -- -- 65
2019-04-24 08:00:00 14.5 12 Oeste 28 Oeste 0 -- -- 69
2019-04-24 07:00:00 14.6 11 Oeste 31 Oeste 0 -- -- 69
2019-04-24 06:00:00 14.6 13 Noroeste 31 Noroeste 0 -- -- 74
2019-04-24 05:00:00 14.4 12 Noroeste 23 Norte 0 -- -- 76
2019-04-24 04:00:00 14.7 14 Noroeste 27 Noroeste 0 -- -- 73
2019-04-24 03:00:00 15 13 Noroeste 27 Oeste 0 -- -- 68
2019-04-24 02:00:00 14.5 12 Oeste 26 Oeste 0 -- -- 68
2019-04-24 01:00:00 14.6 10 Noroeste 30 Noroeste 0 -- -- 77
2019-04-24 00:00:00 14.7 13 Noroeste 33 Oeste 0 -- -- 79
2019-04-23 23:00:00 15 17 Noroeste 31 Noroeste 0 -- -- 75
2019-04-23 22:00:00 15.1 10 Oeste 27 Noroeste 0 -- -- 71
2019-04-23 21:00:00 15.4 17 Noroeste 36 Norte 0 -- -- 71
2019-04-23 20:00:00 16.2 23 Noroeste 52 Noroeste 0 -- -- 67
2019-04-23 19:00:00 17.6 19 Noroeste 47 Norte 0 -- -- 66
2019-04-23 18:00:00 17.8 23 Noroeste 42 Noroeste 0 -- -- 67
2019-04-23 17:00:00 18.5 23 Noroeste 43 Noroeste 0 -- -- 68
2019-04-23 16:00:00 18.8 9 Noroeste 33 Noroeste 0 -- -- 69
2019-04-23 15:00:00 19.7 14 Norte 27 Este 0 -- -- 67
2019-04-23 14:00:00 19.8 9 Este 28 Noroeste 0 -- -- 67
2019-04-23 13:00:00 21.8 13 Norte 33 Norte 0 -- -- 53
2019-04-23 12:00:00 21.6 13 Norte 34 Noroeste 0 -- -- 53
2019-04-23 11:00:00 20.5 16 Noroeste 36 Noroeste 0 -- -- 55
2019-04-23 10:00:00 18.8 7 Norte 22 Noroeste 0 -- -- 66
2019-04-23 09:00:00 17.4 3 Nordeste 18 Noroeste 0 -- -- 68
2019-04-23 08:00:00 15.8 11 Oeste 44 Noroeste 0 -- -- 71
2019-04-23 07:00:00 15.7 18 Noroeste 37 Oeste 0 -- -- 69
2019-04-23 06:00:00 15.6 9 Oeste 42 Noroeste 0 -- -- 70
2019-04-23 05:00:00 15.9 12 Oeste 45 Noroeste 0 -- -- 71
2019-04-23 04:00:00 16.2 20 Noroeste 52 Noroeste 0 -- -- 70
2019-04-23 03:00:00 15.9 24 Noroeste 49 Noroeste 0 -- -- 72
2019-04-23 02:00:00 15.9 14 Noroeste 44 Noroeste 0 -- -- 74
2019-04-23 01:00:00 16.1 24 Noroeste 46 Noroeste 0 -- -- 73
2019-04-23 00:00:00 15.9 13 Noroeste 39 Noroeste 0 -- -- 75
2019-04-22 23:00:00 15.9 11 Noroeste 26 Noroeste 0 -- -- 77
2019-04-22 22:00:00 16.6 4 Este 10 Sudeste 0 -- -- 82
2019-04-22 21:00:00 17.2 3 Nordeste 15 Sudeste 0 -- -- 75
2019-04-22 20:00:00 18.8 10 Sudeste 23 Nordeste 0 -- -- 72
2019-04-22 19:00:00 19.9 15 Norte 31 Noroeste 0 -- -- 64
2019-04-22 18:00:00 21.8 18 Norte 32 Norte 0 -- -- 58
2019-04-22 17:00:00 22.9 19 Norte 33 Norte 0 -- -- 56
2019-04-22 16:00:00 24.2 18 Norte 32 Norte 0 -- -- 52
2019-04-22 15:00:00 23.8 19 Norte 35 Norte 0 -- -- 50
2019-04-22 14:00:00 24.1 15 Norte 26 Norte 0 -- -- 48
2019-04-22 13:00:00 23.1 10 Norte 20 Nordeste 0 -- -- 51
2019-04-22 12:00:00 21.9 9 Nordeste 20 Sudeste 0 -- -- 56
2019-04-22 11:00:00 20.8 8 Norte 18 Sudeste 0 -- -- 58
2019-04-22 10:00:00 18.5 7 Sudeste 16 Este 0 -- -- 65
2019-04-22 09:00:00 15.6 3 Norte 9 Sudoeste 0 -- -- 75
2019-04-22 08:00:00 12.7 5 Sudoeste 10 Oeste 0 -- -- 71
2019-04-22 07:00:00 14.7 6 Sudeste 21 Sudeste 0 -- -- 77
2019-04-22 06:00:00 13.8 4 Sudeste 14 Oeste 0 -- -- 68
2019-04-22 05:00:00 15.2 8 Sudeste 22 Oeste 0 -- -- 75
2019-04-22 04:00:00 15.6 8 Noroeste 28 Oeste 0 -- -- 66
2019-04-22 03:00:00 15.1 6 Noroeste 34 Noroeste 0 -- -- 75
2019-04-22 02:00:00 15.5 13 Noroeste 39 Norte 0 -- -- 73
2019-04-22 01:00:00 15.9 19 Noroeste 31 Norte 0 -- -- 71
2019-04-22 00:00:00 15.9 16 Noroeste 40 Noroeste 0 -- -- 72
2019-04-21 23:00:00 15.9 15 Noroeste 33 Noroeste 0 -- -- 73
2019-04-21 22:00:00 15.9 13 Noroeste 31 Norte 0 -- -- 74
2019-04-21 21:00:00 16.4 12 Noroeste 32 Noroeste 0 -- -- 73
2019-04-21 20:00:00 17.4 16 Norte 34 Noroeste 0 -- -- 69
2019-04-21 19:00:00 18.4 17 Noroeste 32 Noroeste 0 -- -- 67
2019-04-21 18:00:00 18.7 19 Norte 36 Norte 0 -- -- 68
2019-04-21 17:00:00 20.5 17 Noroeste 42 Noroeste 0 -- -- 61
2019-04-21 16:00:00 20.9 23 Norte 42 Norte 0 -- -- 61
2019-04-21 15:00:00 20.1 21 Noroeste 39 Noroeste 0 -- -- 56
2019-04-21 14:00:00 20.6 18 Noroeste 46 Noroeste 0 -- -- 55
2019-04-21 13:00:00 19 26 Noroeste 45 Oeste 0 -- -- 54
2019-04-21 12:00:00 18.8 20 Noroeste 40 Noroeste 0 -- -- 60
2019-04-21 11:00:00 17.2 15 Noroeste 36 Noroeste 0 -- -- 69
2019-04-21 10:00:00 16.4 16 Noroeste 31 Noroeste 0 -- -- 76
2019-04-21 09:00:00 15.2 17 Noroeste 34 Noroeste 0 -- -- 79
2019-04-21 08:00:00 14.9 12 Noroeste 33 Oeste 0 -- -- 67
2019-04-21 07:00:00 14.3 14 Noroeste 33 Oeste 0 -- -- 79
2019-04-21 06:00:00 14.4 15 Noroeste 39 Noroeste 0 -- -- 77
2019-04-21 05:00:00 14.7 24 Noroeste 38 Oeste 0 -- -- 81
2019-04-21 04:00:00 14.9 17 Noroeste 32 Noroeste 0 -- -- 80
2019-04-21 03:00:00 14.9 17 Noroeste 32 Noroeste 0 -- -- 80
2019-04-21 02:00:00 14.8 12 Noroeste 37 Noroeste 0 -- -- 80
2019-04-21 01:00:00 14.2 15 Oeste 39 Noroeste 0.2 -- -- 83
2019-04-21 00:00:00 14.3 19 Noroeste 34 Noroeste 0 -- -- 84
2019-04-20 23:00:00 15 13 Noroeste 37 Noroeste 0 -- -- 78
2019-04-20 22:00:00 15.2 19 Noroeste 35 Noroeste 0 -- -- 78
2019-04-20 21:00:00 15 15 Noroeste 35 Noroeste 0 -- -- 75
2019-04-20 20:00:00 15.5 12 Noroeste 33 Noroeste 0 -- -- 76
2019-04-20 19:00:00 15.7 15 Noroeste 32 Noroeste 0 -- -- 76
2019-04-20 18:00:00 17.1 15 Noroeste 38 Noroeste 0 -- -- 62
2019-04-20 17:00:00 17 25 Norte 43 Norte 0.2 -- -- 65
2019-04-20 16:00:00 18.4 19 Noroeste 35 Norte 0 -- -- 64
2019-04-20 15:00:00 17.7 14 Noroeste 31 Noroeste 0 -- -- 66
2019-04-20 14:00:00 16.7 14 Noroeste 28 Norte 0.4 -- -- 82
2019-04-20 13:00:00 16.4 14 Norte 41 Noroeste 0.2 -- -- 73
2019-04-20 12:00:00 16.5 17 Noroeste 42 Noroeste 0 -- -- 68
2019-04-20 11:00:00 14.7 22 Noroeste 40 Noroeste 0.2 -- -- 85
2019-04-20 10:00:00 14.7 23 Noroeste 42 Noroeste 0 -- -- 79
2019-04-20 09:00:00 13.4 18 Oeste 41 Noroeste 0 -- -- 86
2019-04-20 08:00:00 14.3 16 Oeste 33 Noroeste 0 -- -- 74
2019-04-20 07:00:00 13.8 18 Noroeste 37 Noroeste 0 -- -- 81
2019-04-20 06:00:00 14.7 18 Noroeste 46 Noroeste 0 -- -- 68
2019-04-20 05:00:00 14.6 21 Oeste 45 Oeste 0 -- -- 66
2019-04-20 04:00:00 14.2 18 Noroeste 37 Noroeste 0 -- -- 72
2019-04-20 03:00:00 14.4 20 Oeste 48 Oeste 0 -- -- 69
2019-04-20 02:00:00 14.9 17 Oeste 46 Oeste 0 -- -- 66
2019-04-20 01:00:00 14.4 21 Oeste 40 Noroeste 0 -- -- 69
2019-04-20 00:00:00 14.5 19 Noroeste 40 Norte 0 -- -- 71
2019-04-19 23:00:00 14.3 19 Noroeste 46 Noroeste 0 -- -- 70
2019-04-19 22:00:00 14.5 26 Noroeste 44 Noroeste 0 -- -- 71
2019-04-19 21:00:00 14.9 15 Noroeste 37 Noroeste 0 -- -- 70
2019-04-19 20:00:00 15.7 21 Noroeste 41 Noroeste 0 -- -- 66
2019-04-19 19:00:00 16.9 23 Noroeste 45 Noroeste 0 -- -- 64
2019-04-19 18:00:00 18.1 25 Noroeste 41 Noroeste 0 -- -- 60
2019-04-19 17:00:00 18.6 25 Noroeste 39 Norte 0 -- -- 59
2019-04-19 16:00:00 19.6 18 Noroeste 36 Oeste 0 -- -- 54
2019-04-19 15:00:00 19.1 21 Noroeste 34 Norte 0 -- -- 58
2019-04-19 14:00:00 18.9 19 Noroeste 37 Noroeste 0 -- -- 61
2019-04-19 13:00:00 18.9 20 Norte 37 Noroeste 0 -- -- 57
2019-04-19 12:00:00 17.5 19 Noroeste 39 Noroeste 0 -- -- 55
2019-04-19 11:00:00 16.4 20 Noroeste 35 Oeste 0 -- -- 63
2019-04-19 10:00:00 15.6 22 Noroeste 42 Noroeste 0 -- -- 65
2019-04-19 09:00:00 14.8 24 Noroeste 43 Noroeste 0 -- -- 73
2019-04-19 08:00:00 14.2 19 Noroeste 44 Noroeste 0 -- -- 72
2019-04-19 07:00:00 14.2 25 Noroeste 49 Noroeste 0 -- -- 75
2019-04-19 06:00:00 14.4 28 Noroeste 46 Noroeste 0 -- -- 77
2019-04-19 05:00:00 14.2 17 Noroeste 45 Noroeste 0 -- -- 72
2019-04-19 04:00:00 14.3 28 Noroeste 48 Noroeste 0 -- -- 73
2019-04-19 03:00:00 14.4 22 Noroeste 42 Noroeste 0 -- -- 74
2019-04-19 02:00:00 14.5 27 Noroeste 48 Noroeste 0 -- -- 73
2019-04-19 01:00:00 14.8 20 Noroeste 36 Noroeste 0 -- -- 76
2019-04-19 00:00:00 14.8 16 Noroeste 35 Oeste 0 -- -- 73
2019-04-18 23:00:00 14.6 18 Noroeste 38 Noroeste 0 -- -- 73
2019-04-18 22:00:00 14.7 19 Noroeste 35 Noroeste 0 -- -- 76
2019-04-18 21:00:00 14.8 14 Noroeste 37 Noroeste 0 -- -- 71
2019-04-18 20:00:00 15.5 19 Noroeste 36 Noroeste 0 -- -- 70
2019-04-18 19:00:00 15.8 23 Noroeste 36 Noroeste 0 -- -- 66
2019-04-18 18:00:00 16.9 23 Norte 39 Norte 0 -- -- 62
2019-04-18 17:00:00 18.2 21 Norte 38 Noroeste 0 -- -- 61
2019-04-18 16:00:00 17.2 17 Noroeste 33 Oeste 0 -- -- 66
2019-04-18 15:00:00 17.3 17 Noroeste 37 Oeste 0 -- -- 63
2019-04-18 14:00:00 17.1 20 Norte 35 Noroeste 0 -- -- 68
2019-04-18 13:00:00 17.7 17 Norte 37 Noroeste 0 -- -- 69
2019-04-18 12:00:00 16.8 18 Noroeste 45 Norte 0 -- -- 69
2019-04-18 11:00:00 16.5 18 Noroeste 32 Noroeste 0 -- -- 72
2019-04-18 10:00:00 16.1 21 Noroeste 40 Noroeste 0 -- -- 67
2019-04-18 09:00:00 15.6 15 Noroeste 31 Oeste 0 -- -- 73
2019-04-18 08:00:00 14.4 13 Noroeste 29 Norte 0 -- -- 80
2019-04-18 07:00:00 14.7 13 Noroeste 33 Oeste 0 -- -- 78
2019-04-18 06:00:00 14.8 16 Noroeste 31 Oeste 0 -- -- 74
2019-04-18 05:00:00 14.5 13 Noroeste 32 Oeste 0 -- -- 73
2019-04-18 04:00:00 14.6 17 Noroeste 31 Noroeste 0 -- -- 75
2019-04-18 03:00:00 14.9 8 Noroeste 31 Noroeste 0 -- -- 75
2019-04-18 02:00:00 14.9 10 Noroeste 33 Oeste 0 -- -- 76
2019-04-18 01:00:00 15.2 12 Noroeste 24 Noroeste 0 -- -- 79
2019-04-18 00:00:00 15.2 14 Noroeste 32 Noroeste 0 -- -- 74
2019-04-17 23:00:00 15.1 16 Noroeste 31 Oeste 0 -- -- 80
2019-04-17 22:00:00 15.6 19 Oeste 33 Oeste 0 -- -- 64
2019-04-17 21:00:00 15.4 21 Oeste 32 Oeste 0 -- -- 69
2019-04-17 20:00:00 16.2 5 Sudoeste 30 Noroeste 0 -- -- 77
2019-04-17 19:00:00 16.2 9 Oeste 26 Noroeste 0 -- -- 78
2019-04-17 18:00:00 15.7 10 Noroeste 23 Noroeste 0.2 -- -- 89
2019-04-17 17:00:00 16.2 9 Norte 15 Noroeste 0.6 -- -- 90
2019-04-17 16:00:00 17.2 8 Sudeste 16 Sudeste 0 -- -- 80
2019-04-17 15:00:00 17.6 6 Este 19 Este 0 -- -- 74
2019-04-17 14:00:00 18 8 Este 16 Este 0 -- -- 71
2019-04-17 13:00:00 19 8 Este 21 Este 0 -- -- 67
2019-04-17 12:00:00 19.3 8 Sudeste 20 Este 0 -- -- 67
2019-04-17 11:00:00 19.2 7 Este 17 Nordeste 0 -- -- 66
2019-04-17 10:00:00 18.7 6 Este 13 Este 0 -- -- 63
2019-04-17 09:00:00 15.2 3 Oeste 13 Oeste 0 -- -- 70
2019-04-17 08:00:00 13.1 8 Sudoeste 14 Oeste 0 -- -- 78
2019-04-17 07:00:00 13 10 Oeste 14 Oeste 0 -- -- 79
2019-04-17 06:00:00 14.3 12 Oeste 18 Oeste 0 -- -- 76
2019-04-17 05:00:00 15.5 6 Oeste 18 Oeste 0 -- -- 75
2019-04-17 04:00:00 15.6 12 Noroeste 21 Noroeste 0 -- -- 76
2019-04-17 03:00:00 15.4 0 Calma 13 Oeste 0 -- -- 80
2019-04-17 02:00:00 15.6 5 Noroeste 14 Noroeste 0 -- -- 82
2019-04-17 01:00:00 15.9 6 Norte 12 Norte 0 -- -- 80
2019-04-17 00:00:00 15.5 0 Calma 9 Sudoeste 0 -- -- 83
2019-04-16 23:00:00 16.1 4 Oeste 12 Oeste 0 -- -- 82
2019-04-16 22:00:00 16.5 4 Noroeste 12 Noroeste 0 -- -- 79
2019-04-16 21:00:00 17 0 Calma 12 Este 0 -- -- 82
2019-04-16 20:00:00 18.3 8 Este 14 Nordeste 0 -- -- 77
2019-04-16 19:00:00 19.5 9 Sudeste 16 Este 0 -- -- 73
2019-04-16 18:00:00 20.3 8 Este 19 Este 0 -- -- 70
2019-04-16 17:00:00 19.2 7 Nordeste 19 Este 0 -- -- 73
2019-04-16 16:00:00 20.8 11 Este 25 Este 0 -- -- 66
2019-04-16 15:00:00 21.1 11 Este 19 Este 0 -- -- 64
2019-04-16 14:00:00 20.3 9 Sudeste 25 Este 0 -- -- 69
2019-04-16 13:00:00 19.8 12 Este 26 Este 0 -- -- 67
2019-04-16 12:00:00 19.2 12 Este 22 Nordeste 0 -- -- 69
2019-04-16 11:00:00 18.6 8 Nordeste 14 Este 0 -- -- 69
2019-04-16 10:00:00 16.3 5 Noroeste 15 Noroeste 0 -- -- 77
2019-04-16 09:00:00 15.8 11 Oeste 17 Oeste 0 -- -- 75
2019-04-16 08:00:00 15 4 Noroeste 16 Oeste 0 -- -- 77
2019-04-16 07:00:00 15.3 7 Oeste 18 Oeste 0 -- -- 78
2019-04-16 06:00:00 15.2 7 Oeste 19 Noroeste 0 -- -- 74
2019-04-16 05:00:00 15.1 12 Oeste 17 Oeste 0 -- -- 76
2019-04-16 04:00:00 15 9 Oeste 15 Sudoeste 0 -- -- 75
2019-04-16 03:00:00 14.9 9 Oeste 13 Oeste 0 -- -- 75
2019-04-16 02:00:00 14.7 8 Oeste 15 Oeste 0 -- -- 75
2019-04-16 01:00:00 14.7 12 Oeste 16 Oeste 0 -- -- 77
2019-04-16 00:00:00 15.4 10 Oeste 19 Noroeste 0 -- -- 75
2019-04-15 23:00:00 16.2 8 Noroeste 17 Noroeste 0 -- -- 73
2019-04-15 22:00:00 16.5 9 Noroeste 21 Noroeste 0 -- -- 72
2019-04-15 21:00:00 16.8 6 Noroeste 16 Noroeste 0 -- -- 74
2019-04-15 20:00:00 17.8 10 Norte 20 Nordeste 0 -- -- 67
2019-04-15 19:00:00 19.4 11 Nordeste 22 Norte 0 -- -- 62
2019-04-15 18:00:00 20 10 Nordeste 24 Nordeste 0 -- -- 61
2019-04-15 17:00:00 20.8 9 Nordeste 23 Nordeste 0 -- -- 56
2019-04-15 16:00:00 21 12 Nordeste 30 Nordeste 0 -- -- 57
2019-04-15 15:00:00 20.6 14 Nordeste 31 Nordeste 0 -- -- 60
2019-04-15 14:00:00 20.5 13 Nordeste 29 Norte 0 -- -- 61
2019-04-15 13:00:00 20 13 Nordeste 32 Nordeste 0 -- -- 61
2019-04-15 12:00:00 20.6 14 Nordeste 32 Norte 0 -- -- 58
2019-04-15 11:00:00 19.3 11 Noroeste 29 Noroeste 0 -- -- 62
2019-04-15 10:00:00 17.3 13 Noroeste 34 Noroeste 0 -- -- 67
2019-04-15 09:00:00 15.9 19 Noroeste 36 Oeste 0 -- -- 72
2019-04-15 08:00:00 15 19 Noroeste 39 Noroeste 0 -- -- 76
2019-04-15 07:00:00 14.9 22 Noroeste 35 Noroeste 0 -- -- 75
2019-04-15 06:00:00 14.9 16 Noroeste 32 Noroeste 0 -- -- 75
2019-04-15 05:00:00 14.6 8 Noroeste 23 Noroeste 0 -- -- 76
2019-04-15 04:00:00 15.1 16 Norte 29 Noroeste 0 -- -- 68
2019-04-15 03:00:00 15.2 22 Noroeste 33 Noroeste 0 -- -- 71
2019-04-15 02:00:00 13.3 6 Oeste 12 Oeste 0 -- -- 74
2019-04-15 01:00:00 14.6 5 Sur 12 Norte 0 -- -- 77
2019-04-15 00:00:00 15.1 7 Noroeste 26 Noroeste 0 -- -- 76
2019-04-14 23:00:00 15.4 13 Noroeste 29 Noroeste 0 -- -- 79
2019-04-14 22:00:00 15.9 5 Norte 19 Norte 0 -- -- 80
2019-04-14 21:00:00 16.5 12 Noroeste 26 Noroeste 0 -- -- 77
2019-04-14 20:00:00 18.4 16 Noroeste 24 Noroeste 0 -- -- 72
2019-04-14 19:00:00 20.9 10 Norte 19 Norte 0 -- -- 63
2019-04-14 18:00:00 21.8 11 Norte 23 Norte 0 -- -- 64
2019-04-14 17:00:00 21.6 11 Nordeste 24 Este 0 -- -- 64
2019-04-14 16:00:00 21.8 12 Este 23 Este 0 -- -- 62
2019-04-14 15:00:00 21.5 13 Este 20 Este 0 -- -- 63
2019-04-14 14:00:00 21.1 12 Este 19 Este 0 -- -- 63
2019-04-14 13:00:00 20.4 12 Este 22 Este 0 -- -- 65
2019-04-14 12:00:00 20 11 Este 18 Este 0 -- -- 67
2019-04-14 11:00:00 19.5 9 Este 16 Este 0 -- -- 67
2019-04-14 10:00:00 17.9 3 Norte 9 Este 0 -- -- 64
2019-04-14 09:00:00 16.6 3 Este 10 Oeste 0 -- -- 48
2019-04-14 08:00:00 14.5 10 Oeste 19 Oeste 0 -- -- 36
2019-04-14 07:00:00 13.4 11 Sudoeste 18 Oeste 0 -- -- 39
2019-04-14 06:00:00 12.8 11 Sudoeste 15 Sudoeste 0 -- -- 42
2019-04-14 05:00:00 12.3 9 Oeste 18 Noroeste 0 -- -- 54
2019-04-14 04:00:00 12.3 5 Oeste 16 Oeste 0 -- -- 60
2019-04-14 03:00:00 12.9 4 Oeste 19 Noroeste 0 -- -- 70
2019-04-14 02:00:00 13.9 9 Norte 19 Norte 0 -- -- 79
2019-04-14 01:00:00 14.4 10 Noroeste 30 Norte 0 -- -- 66
2019-04-14 00:00:00 14.6 19 Norte 28 Norte 0 -- -- 73
2019-04-13 23:00:00 14.9 19 Norte 29 Norte 0 -- -- 71
2019-04-13 22:00:00 15.2 19 Norte 31 Norte 0 -- -- 68
2019-04-13 21:00:00 16.1 11 Norte 28 Noroeste 0 -- -- 63
2019-04-13 20:00:00 17.5 21 Noroeste 29 Noroeste 0 -- -- 67
2019-04-13 19:00:00 19.9 17 Norte 28 Noroeste 0 -- -- 53
2019-04-13 18:00:00 21.3 18 Norte 29 Noroeste 0 -- -- 44
2019-04-13 17:00:00 21.2 18 Norte 31 Norte 0 -- -- 50
2019-04-13 16:00:00 21.6 14 Norte 31 Norte 0 -- -- 53
2019-04-13 15:00:00 20.4 19 Norte 35 Norte 0 -- -- 56
2019-04-13 14:00:00 20.1 19 Norte 35 Noroeste 0 -- -- 58
2019-04-13 13:00:00 19.2 21 Norte 33 Norte 0 -- -- 60
2019-04-13 12:00:00 19 21 Noroeste 35 Noroeste 0 -- -- 60
2019-04-13 11:00:00 17.7 21 Noroeste 37 Noroeste 0 -- -- 63
2019-04-13 10:00:00 16.2 17 Noroeste 36 Noroeste 0 -- -- 68
2019-04-13 09:00:00 15.2 15 Noroeste 33 Noroeste 0 -- -- 71
2019-04-13 08:00:00 14.4 12 Oeste 32 Noroeste 0 -- -- 75
2019-04-13 07:00:00 14.6 16 Noroeste 34 Noroeste 0 -- -- 74
2019-04-13 06:00:00 14.7 15 Oeste 32 Noroeste 0 -- -- 70
2019-04-13 05:00:00 14.6 19 Noroeste 37 Noroeste 0 -- -- 72
2019-04-13 04:00:00 14.8 19 Oeste 35 Noroeste 0 -- -- 70
2019-04-13 03:00:00 14.6 18 Oeste 38 Noroeste 0 -- -- 72
2019-04-13 02:00:00 14.9 14 Noroeste 39 Oeste 0 -- -- 72
2019-04-13 01:00:00 14.5 15 Noroeste 34 Oeste 0 -- -- 72
2019-04-13 00:00:00 14.8 18 Noroeste 37 Oeste 0 -- -- 72
2019-04-12 23:00:00 14.4 18 Oeste 37 Noroeste 0 -- -- 70
2019-04-12 22:00:00 14.7 20 Noroeste 35 Noroeste 0 -- -- 71
2019-04-12 21:00:00 14.7 16 Noroeste 41 Noroeste 0 -- -- 74
2019-04-12 20:00:00 15.5 22 Noroeste 36 Noroeste 0 -- -- 69
2019-04-12 19:00:00 17.7 14 Noroeste 39 Norte 0 -- -- 60
2019-04-12 18:00:00 17.9 24 Norte 43 Oeste 0 -- -- 58
2019-04-12 17:00:00 18.4 24 Noroeste 45 Norte 0 -- -- 58
2019-04-12 16:00:00 19.2 20 Noroeste 40 Noroeste 0 -- -- 54
2019-04-12 15:00:00 19 22 Norte 40 Norte 0 -- -- 57
2019-04-12 14:00:00 18.7 17 Noroeste 35 Noroeste 0 -- -- 59
2019-04-12 13:00:00 17.8 20 Noroeste 36 Norte 0 -- -- 60
2019-04-12 12:00:00 15.5 18 Noroeste 35 Noroeste 0 -- -- 76
2019-04-12 11:00:00 15.3 13 Noroeste -- -- -- -- -- 74
2019-04-12 10:00:00 -- 19 Noroeste 38 Noroeste 0 -- -- --
2019-04-12 09:00:00 14.6 14 Noroeste 33 Oeste 0 -- -- 75
2019-04-12 08:00:00 14.2 15 Noroeste 33 Oeste 0 -- -- 72
2019-04-12 07:00:00 13.9 15 Noroeste 42 Noroeste 0 -- -- 75
2019-04-12 06:00:00 14.2 21 Noroeste 41 Oeste 0 -- -- 76
2019-04-12 05:00:00 14.1 19 Oeste 37 Oeste 0 -- -- 71
2019-04-12 04:00:00 13.8 14 Noroeste 36 Noroeste 0 -- -- 71
2019-04-12 03:00:00 14.2 15 Noroeste 34 Noroeste 0 -- -- 73
2019-04-12 02:00:00 14.5 16 Noroeste 38 Noroeste 0 -- -- 69
2019-04-12 01:00:00 14.4 15 Noroeste 41 Noroeste 0 -- -- 73
2019-04-12 00:00:00 14.5 24 Noroeste 42 Noroeste 0 -- -- 73
2019-04-11 23:00:00 14.7 25 Noroeste 43 Noroeste 0 -- -- 74
2019-04-11 22:00:00 14.8 18 Noroeste 36 Noroeste 0 -- -- 73
2019-04-11 21:00:00 15.2 16 Noroeste 42 Oeste 0 -- -- 67
2019-04-11 20:00:00 15.3 17 Oeste 39 Noroeste 0 -- -- 67
2019-04-11 19:00:00 16.1 25 Noroeste 40 Noroeste 0 -- -- 64
2019-04-11 18:00:00 17 16 Noroeste 42 Norte 0 -- -- 64
2019-04-11 17:00:00 18.1 19 Noroeste 40 Noroeste 0 -- -- 65
2019-04-11 16:00:00 19 18 Noroeste 38 Norte 0 -- -- 56
2019-04-11 15:00:00 18.5 19 Noroeste 37 Noroeste 0 -- -- 57
2019-04-11 14:00:00 18.1 20 Noroeste 37 Oeste 0 -- -- 60
2019-04-11 13:00:00 17 18 Noroeste 39 Noroeste 0 -- -- 62
2019-04-11 12:00:00 16.2 18 Noroeste 40 Norte 0 -- -- 66
2019-04-11 11:00:00 15.8 20 Noroeste 33 Noroeste 0 -- -- 64
2019-04-11 10:00:00 14.8 16 Noroeste 42 Noroeste 0 -- -- 69
2019-04-11 09:00:00 14.3 16 Noroeste 33 Oeste 0 -- -- 68
2019-04-11 08:00:00 14 14 Noroeste 37 Noroeste 0 -- -- 70
2019-04-11 07:00:00 14.1 17 Noroeste 33 Noroeste 0 -- -- 72
2019-04-11 06:00:00 14.1 15 Noroeste 34 Noroeste 0 -- -- 73
2019-04-11 05:00:00 14.2 13 Noroeste 35 Noroeste 0 -- -- 72
2019-04-11 04:00:00 14.3 19 Oeste 38 Oeste 0 -- -- 68
2019-04-11 03:00:00 14.1 13 Noroeste 30 Oeste 0 -- -- 70
2019-04-11 02:00:00 14.1 14 Noroeste 33 Oeste 0 -- -- 71
2019-04-11 01:00:00 14 14 Noroeste 33 Noroeste 0 -- -- 72
2019-04-11 00:00:00 14.2 18 Noroeste 32 Oeste 0 -- -- 71
2019-04-10 23:00:00 14.7 19 Noroeste 36 Oeste 0 -- -- 77
2019-04-10 22:00:00 15 18 Noroeste 40 Oeste 0 -- -- 71
2019-04-10 21:00:00 14.6 20 Noroeste 38 Noroeste 0 -- -- 73
2019-04-10 20:00:00 15.2 17 Noroeste 37 Noroeste 0 -- -- 72
2019-04-10 19:00:00 15.8 23 Noroeste 41 Norte 0 -- -- 68
2019-04-10 18:00:00 16.9 19 Noroeste 38 Noroeste 0 -- -- 67
2019-04-10 17:00:00 17.2 23 Noroeste 40 Norte 0 -- -- 64
2019-04-10 16:00:00 19 20 Noroeste 37 Norte 0 -- -- 55
2019-04-10 15:00:00 18.4 17 Noroeste 38 Norte 0 -- -- 59
2019-04-10 14:00:00 19.1 18 Norte 38 Norte 0 -- -- 56
2019-04-10 13:00:00 18.7 22 Norte 36 Norte 0 -- -- 56
2019-04-10 12:00:00 16.1 21 Noroeste 35 Noroeste 0 -- -- 64
2019-04-10 11:00:00 16.8 15 Noroeste 34 Noroeste 0 -- -- 59
2019-04-10 10:00:00 15.8 15 Noroeste 31 Norte 0 -- -- 61
2019-04-10 09:00:00 14.9 13 Noroeste 25 Oeste 0 -- -- 72
2019-04-10 08:00:00 13.9 13 Oeste 30 Oeste 0 -- -- 75
2019-04-10 07:00:00 14.4 17 Noroeste 31 Noroeste 0 -- -- 66
2019-04-10 06:00:00 13.9 16 Oeste 34 Oeste 0 -- -- 71
2019-04-10 05:00:00 13.8 21 Oeste 31 Oeste 0 -- -- 71
2019-04-10 04:00:00 13.8 13 Noroeste 28 Noroeste 0 -- -- 72
2019-04-10 03:00:00 14 16 Noroeste 30 Noroeste 0 -- -- 74
2019-04-10 02:00:00 14.3 17 Noroeste 34 Noroeste 0 -- -- 74
2019-04-10 01:00:00 14.3 14 Oeste 33 Oeste 0 -- -- 73
2019-04-10 00:00:00 14.3 15 Noroeste 31 Oeste 0 -- -- 73
2019-04-09 23:00:00 14.3 13 Noroeste 31 Noroeste 0 -- -- 75
2019-04-09 22:00:00 14.3 9 Noroeste 28 Noroeste 0 -- -- 76
2019-04-09 21:00:00 14.4 13 Noroeste 29 Noroeste 0 -- -- 79
2019-04-09 20:00:00 15.6 16 Noroeste 29 Noroeste 0 -- -- 78
2019-04-09 19:00:00 15.9 14 Norte 25 Norte 0 -- -- 80
2019-04-09 18:00:00 16.2 14 Norte 24 Norte 0.4 -- -- 86
2019-04-09 17:00:00 16.1 9 Norte 28 Nordeste 0.2 -- -- 87
2019-04-09 16:00:00 18.4 15 Norte 31 Nordeste 0 -- -- 69
2019-04-09 15:00:00 17.9 12 Norte 30 Nordeste 0 -- -- 71
2019-04-09 14:00:00 19.1 10 Norte 27 Noroeste 0 -- -- 71
2019-04-09 13:00:00 18.7 15 Norte 31 Noroeste 0 -- -- 70
2019-04-09 12:00:00 18.8 13 Norte 29 Noroeste 0 -- -- 63
2019-04-09 11:00:00 17.9 13 Noroeste 30 Oeste 0 -- -- 61
2019-04-09 10:00:00 16.2 12 Noroeste 25 Noroeste 0 -- -- 71
2019-04-09 09:00:00 15.4 9 Oeste 17 Oeste 0 -- -- 72
2019-04-09 08:00:00 14.8 8 Noroeste 19 Noroeste 0 -- -- 73
2019-04-09 07:00:00 13.6 12 Oeste 18 Oeste 0 -- -- 73
2019-04-09 06:00:00 14 6 Oeste 18 Oeste 0 -- -- 75
2019-04-09 05:00:00 14.1 8 Oeste 25 Noroeste 0 -- -- 74
2019-04-09 04:00:00 14.5 9 Noroeste 23 Oeste 0 -- -- 72
2019-04-09 03:00:00 14.6 11 Oeste 24 Oeste 0 -- -- 69
2019-04-09 02:00:00 14.5 18 Oeste 28 Oeste 0 -- -- 68
2019-04-09 01:00:00 14.2 16 Noroeste 30 Norte 0 -- -- 68
2019-04-09 00:00:00 14.2 10 Oeste 24 Noroeste 0 -- -- 73
2019-04-08 23:00:00 14.4 12 Noroeste 25 Noroeste 0 -- -- 76
2019-04-08 22:00:00 14.8 11 Noroeste 22 Norte 0 -- -- 76
2019-04-08 21:00:00 14.9 10 Noroeste 23 Norte 0 -- -- 77
2019-04-08 20:00:00 15.7 13 Norte 24 Norte 0 -- -- 75
2019-04-08 19:00:00 16.5 15 Norte 30 Norte 0 -- -- 73
2019-04-08 18:00:00 17.4 17 Norte 32 Norte 0 -- -- 69
2019-04-08 17:00:00 18 21 Norte 33 Norte 0 -- -- 64
2019-04-08 16:00:00 18.1 18 Noroeste 30 Norte 0 -- -- 62
2019-04-08 15:00:00 18.1 13 Noroeste 28 Oeste 0 -- -- 63
2019-04-08 14:00:00 17.9 15 Norte 30 Norte 0 -- -- 66
2019-04-08 13:00:00 18.2 15 Norte 26 Norte 0 -- -- 64
2019-04-08 12:00:00 17.2 10 Noroeste 31 Noroeste 0 -- -- 67
2019-04-08 11:00:00 16.3 15 Noroeste 30 Noroeste 0 -- -- 70
2019-04-08 10:00:00 15.3 13 Norte 22 Oeste 0 -- -- 80
2019-04-08 09:00:00 15.6 13 Oeste 25 Oeste 0 -- -- 67
2019-04-08 08:00:00 14.7 10 Noroeste 21 Oeste 0 -- -- 76
2019-04-08 07:00:00 14.8 11 Noroeste 17 Norte 0 -- -- 75
2019-04-08 06:00:00 15 9 Oeste 26 Oeste 0 -- -- 71
2019-04-08 05:00:00 14.8 9 Noroeste 20 Noroeste 0 -- -- 76
2019-04-08 04:00:00 14.9 10 Noroeste 22 Noroeste 0 -- -- 80
2019-04-08 03:00:00 14.4 10 Noroeste 20 Noroeste 0 -- -- 82
2019-04-08 02:00:00 15.1 12 Norte 19 Norte 0 -- -- 72
2019-04-08 01:00:00 14.9 8 Oeste 17 Noroeste 0 -- -- 67
2019-04-08 00:00:00 14 8 Oeste 19 Noroeste 0 -- -- 72
2019-04-07 23:00:00 14.5 6 Noroeste 15 Noroeste 0 -- -- 75
2019-04-07 22:00:00 14.9 7 Noroeste 21 Noroeste 0 -- -- 78
2019-04-07 21:00:00 15 13 Noroeste 22 Noroeste 0 -- -- 78
2019-04-07 20:00:00 15.8 10 Noroeste 30 Norte 0 -- -- 73
2019-04-07 19:00:00 16.9 15 Norte 25 Norte 0 -- -- 72
2019-04-07 18:00:00 18.7 14 Noroeste 30 Norte 0 -- -- 63
2019-04-07 17:00:00 19.5 12 Noroeste 32 Norte 0 -- -- 62
2019-04-07 16:00:00 19.5 20 Norte 32 Norte 0 -- -- 64
2019-04-07 15:00:00 18.3 13 Noroeste 28 Noroeste 0 -- -- 66
2019-04-07 14:00:00 18.7 9 Nordeste 22 Noroeste 0 -- -- 61
2019-04-07 13:00:00 19.3 10 Noroeste 22 Noroeste 0 -- -- 56
2019-04-07 12:00:00 19.8 16 Norte 27 Norte 0 -- -- 55
2019-04-07 11:00:00 19 14 Norte 24 Norte 0 -- -- 58
2019-04-07 10:00:00 17.4 12 Norte 22 Noroeste 0 -- -- 57
2019-04-07 09:00:00 14.9 9 Noroeste 17 Oeste 0 -- -- 61
2019-04-07 08:00:00 12.1 12 Oeste 19 Oeste 0 -- -- 68
2019-04-07 07:00:00 11.1 8 Oeste 16 Oeste 0 -- -- 73
2019-04-07 06:00:00 12.8 9 Oeste 23 Noroeste 0 -- -- 71
2019-04-07 05:00:00 12.3 5 Noroeste 16 Oeste 0 -- -- 73
2019-04-07 04:00:00 13 8 Noroeste 17 Noroeste 0 -- -- 72
2019-04-07 03:00:00 13.5 6 Noroeste 21 Noroeste 0 -- -- 72
2019-04-07 02:00:00 13.7 10 Oeste 27 Oeste 0 -- -- 72
2019-04-07 01:00:00 13.7 10 Noroeste 26 Oeste 0 -- -- 75
2019-04-07 00:00:00 13.8 15 Noroeste 24 Noroeste 0 -- -- 70
2019-04-06 23:00:00 13.8 12 Noroeste 26 Noroeste 0 -- -- 73
2019-04-06 22:00:00 14.1 10 Noroeste 28 Oeste 0 -- -- 75
2019-04-06 21:00:00 14.6 15 Noroeste 28 Norte 0 -- -- 75
2019-04-06 20:00:00 15.6 13 Oeste 34 Noroeste 0 -- -- 62
2019-04-06 19:00:00 16.8 21 Noroeste 44 Norte 0 -- -- 58
2019-04-06 18:00:00 17.6 23 Noroeste 42 Noroeste 0 -- -- 56
2019-04-06 17:00:00 17.6 19 Noroeste 36 Norte 0 -- -- 56
2019-04-06 16:00:00 17.8 17 Noroeste 35 Noroeste 0 -- -- 58
2019-04-06 15:00:00 17.3 19 Noroeste 40 Noroeste 0 -- -- 59
2019-04-06 14:00:00 16.9 19 Noroeste 48 Noroeste 0 -- -- 62
2019-04-06 13:00:00 17.4 18 Noroeste 48 Norte 0 -- -- 60
2019-04-06 12:00:00 15.8 15 Noroeste 35 Norte 0 -- -- 68
2019-04-06 11:00:00 16 17 Noroeste 38 Noroeste 0 -- -- 64
2019-04-06 10:00:00 14.8 21 Noroeste 43 Noroeste 0 -- -- 68
2019-04-06 09:00:00 14.1 15 Noroeste 30 Noroeste 0 -- -- 72
2019-04-06 08:00:00 13.7 13 Noroeste 30 Noroeste 0 -- -- 76
2019-04-06 07:00:00 13.6 14 Oeste 32 Oeste 0 -- -- 69
2019-04-06 06:00:00 13.1 16 Oeste 36 Oeste 0.2 -- -- 68
2019-04-06 05:00:00 13.4 14 Oeste 28 Noroeste 0 -- -- 72
2019-04-06 04:00:00 13.4 13 Noroeste 26 Noroeste 0.4 -- -- 80
2019-04-06 03:00:00 13.1 13 Oeste 34 Noroeste 0 -- -- 81
2019-04-06 02:00:00 13.9 12 Noroeste 34 Noroeste 0 -- -- 77
2019-04-06 01:00:00 13.6 16 Noroeste 36 Noroeste 0.6 -- -- 81
2019-04-06 00:00:00 14.2 14 Noroeste 37 Noroeste 0 -- -- 74
2019-04-05 23:00:00 14.4 12 Noroeste 42 Noroeste 0 -- -- 71
2019-04-05 22:00:00 14.8 15 Noroeste 38 Noroeste 0 -- -- 73
2019-04-05 21:00:00 14.8 18 Noroeste 36 Oeste 0 -- -- 76
2019-04-05 20:00:00 15.1 14 Noroeste 36 Noroeste 0 -- -- 74
2019-04-05 19:00:00 15.8 15 Noroeste 35 Noroeste 0 -- -- 73
2019-04-05 18:00:00 16.5 19 Noroeste 42 Oeste 0 -- -- 72
2019-04-05 17:00:00 19.6 23 Norte 41 Noroeste 0 -- -- 59
2019-04-05 16:00:00 20.4 20 Norte 40 Norte 0 -- -- 50
2019-04-05 15:00:00 19.7 21 Noroeste 44 Norte 0 -- -- 53
2019-04-05 14:00:00 19.9 15 Noroeste 37 Norte 0 -- -- 51
2019-04-05 13:00:00 18.4 17 Noroeste 33 Noroeste 0 -- -- 56
2019-04-05 12:00:00 18.8 19 Norte 39 Oeste 0 -- -- 55
2019-04-05 11:00:00 15.3 17 Oeste 31 Oeste 0 -- -- 71
2019-04-05 10:00:00 15.1 11 Noroeste 26 Noroeste 0 -- -- 71
2019-04-05 09:00:00 14.2 9 Oeste 25 Noroeste 0 -- -- 73
2019-04-05 08:00:00 14 12 Noroeste 26 Noroeste 0 -- -- 71
2019-04-05 07:00:00 13.5 10 Oeste 29 Oeste 0 -- -- 73
2019-04-05 06:00:00 13.6 11 Oeste 33 Oeste 0 -- -- 67
2019-04-05 05:00:00 13.8 21 Oeste 40 Oeste 0 -- -- 68
2019-04-05 04:00:00 13.5 11 Noroeste 29 Oeste 0 -- -- 75
2019-04-05 03:00:00 13.4 14 Oeste 35 Oeste 0 -- -- 78
2019-04-05 02:00:00 14 11 Oeste 30 Oeste 0 -- -- 75
2019-04-05 01:00:00 13.5 12 Noroeste 22 Noroeste 0 -- -- 77
2019-04-05 00:00:00 13.3 10 Oeste 19 Noroeste 0.2 -- -- 85
2019-04-04 23:00:00 14 6 Noroeste 22 Noroeste 0 -- -- 77
2019-04-04 22:00:00 14.2 14 Noroeste 31 Noroeste 0 -- -- 76
2019-04-04 21:00:00 14.2 9 Noroeste 25 Noroeste 0 -- -- 77
2019-04-04 20:00:00 14.5 10 Oeste 26 Noroeste 0 -- -- 74
2019-04-04 19:00:00 14.6 13 Noroeste 27 Norte 0.2 -- -- 82
2019-04-04 18:00:00 16 18 Noroeste 30 Norte 0 -- -- 72
2019-04-04 17:00:00 16.7 17 Noroeste 36 Norte 0 -- -- 68
2019-04-04 16:00:00 17.1 14 Noroeste 35 Norte 0 -- -- 66
2019-04-04 15:00:00 18.6 19 Noroeste 41 Norte 0 -- -- 59
2019-04-04 14:00:00 18.9 16 Noroeste 34 Noroeste 0 -- -- 62
2019-04-04 13:00:00 17.5 19 Noroeste 38 Norte 0 -- -- 67
2019-04-04 12:00:00 16.1 18 Norte 34 Norte 0 -- -- 78
2019-04-04 11:00:00 16.4 16 Norte 27 Noroeste 0 -- -- 69
2019-04-04 10:00:00 16.6 12 Norte 20 Oeste 0 -- -- 67
2019-04-04 09:00:00 14 5 Oeste 12 Oeste 0 -- -- 76
2019-04-04 08:00:00 11.5 9 Oeste 16 Sudoeste 0 -- -- 82
2019-04-04 07:00:00 11.6 9 Oeste 14 Oeste 0 -- -- 82
2019-04-04 06:00:00 11.7 9 Oeste 15 Oeste 0 -- -- 81
2019-04-04 05:00:00 11.6 9 Oeste 14 Oeste 0 -- -- 80
2019-04-04 04:00:00 11.5 6 Oeste 13 Oeste 0 -- -- 80
2019-04-04 03:00:00 12.1 9 Sudoeste 15 Oeste 0 -- -- 77
2019-04-04 02:00:00 11.7 8 Sudoeste 13 Sudoeste 0 -- -- 80
2019-04-04 01:00:00 12.2 9 Sudoeste 13 Oeste 0 -- -- 78
2019-04-04 00:00:00 12.1 8 Oeste 15 Sudoeste 0 -- -- 77
2019-04-03 23:00:00 12.2 7 Sudoeste 14 Sudoeste 0 -- -- 78
2019-04-03 22:00:00 12.9 7 Sudoeste 11 Sudoeste 0 -- -- 84
2019-04-03 21:00:00 14.2 5 Sudoeste 8 Sudoeste 0 -- -- 85
2019-04-03 20:00:00 15.5 0 Calma 9 Sudeste 0 -- -- 84
2019-04-03 19:00:00 15.6 4 Sudeste 16 Este 0.4 -- -- 84
2019-04-03 18:00:00 16.1 9 Este 14 Este 0.2 -- -- 77
2019-04-03 17:00:00 16.4 12 Norte 21 Norte 0 -- -- 75
2019-04-03 16:00:00 17.2 9 Noroeste 19 Norte 0 -- -- 76
2019-04-03 15:00:00 16 4 Noroeste 15 Noroeste 0 -- -- 83
2019-04-03 14:00:00 14.8 4 Oeste 23 Norte 0.8 -- -- 88
2019-04-03 13:00:00 15.3 14 Norte 26 Noroeste 0 -- -- 83
2019-04-03 12:00:00 16.8 10 Nordeste 19 Norte 0 -- -- 83
2019-04-03 11:00:00 16.1 8 Este 15 Este 0 -- -- 85
2019-04-03 10:00:00 15 0 Calma 9 Sudoeste 0 -- -- 85
2019-04-03 09:00:00 13.1 5 Oeste 12 Sudoeste 0 -- -- 88
2019-04-03 08:00:00 12.8 5 Oeste 11 Oeste 0 -- -- 88
2019-04-03 07:00:00 12.9 7 Oeste 10 Oeste 0 -- -- 89
2019-04-03 06:00:00 13.4 4 Oeste 12 Oeste 0 -- -- 89
2019-04-03 05:00:00 13.6 8 Oeste 13 Oeste 0 -- -- 91
2019-04-03 04:00:00 13.9 5 Oeste 9 Sudoeste 0 -- -- 92
2019-04-03 03:00:00 14.7 4 Oeste 6 Noroeste 0 -- -- 91
2019-04-03 02:00:00 15 3 Noroeste 8 Norte 0 -- -- 90
2019-04-03 01:00:00 15.2 3 Este 6 Este 0 -- -- 90
2019-04-03 00:00:00 15.4 4 Este 10 Sudeste 0 -- -- 90
2019-04-02 23:00:00 15.5 3 Este 5 Este 0 -- -- 90
2019-04-02 22:00:00 15.4 0 Calma 12 Noroeste 0 -- -- 89
2019-04-02 21:00:00 15.4 6 Noroeste 13 Noroeste 0.2 -- -- 87
2019-04-02 20:00:00 15.4 4 Oeste 17 Noroeste 2.2 -- -- 89
2019-04-02 19:00:00 16.6 10 Noroeste 25 Norte 0 -- -- 80
2019-04-02 18:00:00 17.8 10 Noroeste 23 Oeste 0 -- -- 76
2019-04-02 17:00:00 18.6 4 Sudeste 13 Este 0 -- -- 72
2019-04-02 16:00:00 18.1 7 Este 17 Nordeste 0 -- -- 70
2019-04-02 15:00:00 18.4 9 Nordeste 22 Este 0 -- -- 69
2019-04-02 14:00:00 20.2 12 Este 30 Este 0 -- -- 61
2019-04-02 13:00:00 19.6 18 Este 33 Este 0 -- -- 65
2019-04-02 12:00:00 18.6 18 Este 30 Este 0 -- -- 66
2019-04-02 11:00:00 17.7 12 Este 20 Este 0 -- -- 69
2019-04-02 10:00:00 15.5 5 Sudeste 13 Este 0 -- -- 81
2019-04-02 09:00:00 13.7 0 Calma 8 Sudoeste 0 -- -- 86
2019-04-02 08:00:00 13.1 3 Sudoeste 14 Oeste 0 -- -- 83
2019-04-02 07:00:00 12.8 5 Oeste 10 Sudoeste 0 -- -- 84
2019-04-02 06:00:00 13.4 6 Sudoeste 9 Sudoeste 0 -- -- 86
2019-04-02 05:00:00 13 6 Oeste 12 Oeste 0 -- -- 86
2019-04-02 04:00:00 12.5 8 Oeste 15 Oeste 0 -- -- 84
2019-04-02 03:00:00 12.4 7 Sudoeste 12 Sudoeste 0 -- -- 83
2019-04-02 02:00:00 12.8 7 Sudoeste 12 Sudoeste 0 -- -- 82
2019-04-02 01:00:00 13 7 Oeste 13 Sudoeste 0 -- -- 82
2019-04-02 00:00:00 13.1 5 Oeste 10 Oeste 0 -- -- 85
2019-04-01 23:00:00 13.5 6 Oeste 9 Sudoeste 0 -- -- 87
2019-04-01 22:00:00 14.4 3 Oeste 8 Oeste 0 -- -- 86
2019-04-01 21:00:00 14.8 3 Sudoeste 5 Sudoeste 0 -- -- 87
2019-04-01 20:00:00 15.1 2 Este 9 Este 0 -- -- 84
2019-04-01 19:00:00 15.3 6 Sudeste 15 Sudeste 0 -- -- 80
2019-04-01 18:00:00 15.7 10 Sudeste 15 Sudeste 0 -- -- 81
2019-04-01 17:00:00 15.4 7 Este 12 Este 0 -- -- 83
2019-04-01 16:00:00 15.5 3 Este 9 Este 0 -- -- 79
2019-04-01 15:00:00 15 5 Este 14 Sudeste 0.2 -- -- 84
2019-04-01 14:00:00 15.5 7 Este 14 Sudeste 0.2 -- -- 82
2019-04-01 13:00:00 15.8 9 Este 19 Este 0 -- -- 77
2019-04-01 12:00:00 17.1 12 Este 24 Nordeste 0 -- -- 73
2019-04-01 11:00:00 17.9 9 Este 15 Este 0 -- -- 67
2019-04-01 10:00:00 17.3 7 Norte 11 Noroeste 0 -- -- 67
2019-04-01 09:00:00 13.6 4 Sudoeste 12 Sudoeste 0 -- -- 74
2019-04-01 08:00:00 11.7 6 Sudoeste 12 Sudoeste 0 -- -- 78
2019-04-01 07:00:00 11.8 7 Sudoeste 10 Sudoeste 0 -- -- 80
2019-04-01 06:00:00 12.2 7 Oeste 13 Oeste 0 -- -- 78
2019-04-01 05:00:00 12.3 10 Oeste 13 Oeste 0 -- -- 81
2019-04-01 04:00:00 12.9 8 Oeste 12 Oeste 0 -- -- 80
2019-04-01 03:00:00 13.6 5 Oeste 12 Norte 0 -- -- 84
2019-04-01 02:00:00 12.6 8 Sudoeste 11 Sudoeste 0 -- -- 78
2019-04-01 01:00:00 12.9 9 Oeste 11 Oeste 0 -- -- 78
2019-04-01 00:00:00 12.5 6 Oeste 9 Sudoeste 0 -- -- 83
2019-03-31 23:00:00 13.1 5 Sudoeste 10 Sudoeste 0 -- -- 85
2019-03-31 22:00:00 13.9 4 Sudoeste 8 Sudoeste 0 -- -- 84
2019-03-31 21:00:00 15.3 4 Sudoeste 8 Este 0 -- -- 79
2019-03-31 20:00:00 15.8 6 Nordeste 13 Este 0 -- -- 76
2019-03-31 19:00:00 16.8 8 Este 14 Este 0 -- -- 69
2019-03-31 18:00:00 17.5 5 Nordeste 9 Noroeste 0 -- -- 66
2019-03-31 17:00:00 16.9 0 Calma 11 Nordeste 0 -- -- 70
2019-03-31 16:00:00 16.5 4 Sudoeste 15 Este 0 -- -- 69
2019-03-31 15:00:00 17.3 8 Este 19 Este 0 -- -- 60
2019-03-31 14:00:00 17.8 11 Nordeste 26 Este 0 -- -- 65
2019-03-31 13:00:00 18.2 9 Este 25 Este 0 -- -- 62
2019-03-31 12:00:00 18.5 15 Este 25 Sudeste 0 -- -- 61
2019-03-31 11:00:00 18.3 8 Este 19 Este 0 -- -- 57
2019-03-31 10:00:00 17.2 6 Este 9 Este 0 -- -- 56
2019-03-31 09:00:00 13 0 Calma 17 Sudoeste 0 -- -- 69
2019-03-31 08:00:00 10.5 9 Sudoeste 16 Oeste 0 -- -- 70
2019-03-31 07:00:00 10.6 12 Oeste 15 Oeste 0 -- -- 70
2019-03-31 06:00:00 10.7 9 Sudoeste 17 Oeste 0 -- -- 73
2019-03-31 05:00:00 10.7 8 Oeste 14 Oeste 0 -- -- 75
2019-03-31 04:00:00 10.7 9 Oeste 15 Sudoeste 0 -- -- 75
2019-03-31 00:00:00 11.2 8 Sudoeste 14 Oeste 0 -- -- 82
2019-03-30 23:00:00 11.6 8 Sudoeste 12 Sudoeste 0 -- -- 82
2019-03-30 22:00:00 12.6 8 Sudoeste 11 Sudoeste 0 -- -- 85
2019-03-30 21:00:00 14 5 Oeste 15 Oeste 0 -- -- 81
2019-03-30 20:00:00 14.5 8 Norte 16 Norte 0 -- -- 81
2019-03-30 19:00:00 15.3 3 Sudeste 12 Este 0 -- -- 77
2019-03-30 18:00:00 15.8 6 Este 14 Este 0 -- -- 75
2019-03-30 17:00:00 15.9 10 Nordeste 19 Nordeste 0 -- -- 77
2019-03-30 16:00:00 15.9 11 Este 17 Este 0 -- -- 76
2019-03-30 15:00:00 16.1 10 Este 24 Nordeste 0 -- -- 70
2019-03-30 14:00:00 16.6 14 Este 36 Este 0 -- -- 67
2019-03-30 13:00:00 16.8 6 Norte 32 Este 0 -- -- 68
2019-03-30 12:00:00 18.3 13 Nordeste 27 Nordeste 0 -- -- 67
2019-03-30 11:00:00 17.2 15 Este 26 Este 0 -- -- 71
2019-03-30 10:00:00 15.4 6 Nordeste 23 Noroeste 0 -- -- 67
2019-03-30 09:00:00 14.2 13 Noroeste 27 Norte 0 -- -- 77
2019-03-30 08:00:00 12.4 5 Oeste 14 Oeste 0 -- -- 78
2019-03-30 07:00:00 11 9 Oeste 16 Oeste 0 -- -- 80
2019-03-30 06:00:00 11.1 9 Sudoeste 14 Oeste 0 -- -- 80
2019-03-30 05:00:00 11.4 10 Oeste 14 Oeste 0 -- -- 77
2019-03-30 04:00:00 11.2 9 Oeste 13 Sudoeste 0 -- -- 81
2019-03-30 03:00:00 11.3 7 Oeste 13 Oeste 0 -- -- 82
2019-03-30 02:00:00 11.4 8 Sudoeste 14 Sudoeste 0 -- -- 80
2019-03-30 01:00:00 11.4 7 Oeste 12 Sudoeste 0 -- -- 81
2019-03-30 00:00:00 11.9 6 Oeste 14 Oeste 0 -- -- 78
2019-03-29 23:00:00 12 9 Sudoeste 14 Oeste 0 -- -- 81
2019-03-29 22:00:00 12.6 7 Oeste 12 Oeste 0 -- -- 82
2019-03-29 21:00:00 13.6 6 Sudoeste 10 Sudoeste 0 -- -- 86
2019-03-29 20:00:00 14.4 0 Calma 6 Oeste 0 -- -- 88
2019-03-29 19:00:00 15.1 0 Calma 7 Este 0 -- -- 84
2019-03-29 18:00:00 15.7 6 Este 10 Este 0 -- -- 81
2019-03-29 17:00:00 16.1 6 Este 14 Sudeste 0 -- -- 86
2019-03-29 16:00:00 15.4 0 Calma 12 Este 0.6 -- -- 91
2019-03-29 15:00:00 15.1 5 Nordeste 15 Este 4 -- -- 92
2019-03-29 14:00:00 15 4 Nordeste 26 Sudeste 7.6 -- -- 92
2019-03-29 13:00:00 15.9 12 Sudeste 28 Este 0.2 -- -- 85
2019-03-29 12:00:00 17.2 15 Este 26 Este 0 -- -- 77
2019-03-29 11:00:00 18.2 14 Sudeste 23 Este 0 -- -- 70
2019-03-29 10:00:00 17.1 7 Este 14 Nordeste 0 -- -- 72
2019-03-29 09:00:00 15.9 2 Nordeste 11 Oeste 0 -- -- 75
2019-03-29 08:00:00 12.1 9 Oeste 14 Oeste 0 -- -- 82
2019-03-29 07:00:00 10.9 8 Oeste 15 Oeste 0 -- -- 84
2019-03-29 06:00:00 11 10 Oeste 16 Oeste 0 -- -- 84
2019-03-29 05:00:00 11.4 9 Oeste 15 Oeste 0 -- -- 84
2019-03-29 04:00:00 11.7 14 Oeste 19 Oeste 0 -- -- 84
2019-03-29 03:00:00 11.5 9 Oeste 14 Oeste 0 -- -- 85
2019-03-29 02:00:00 11.6 9 Oeste 17 Oeste 0 -- -- 85
2019-03-29 01:00:00 12.3 12 Oeste 17 Oeste 0 -- -- 85
2019-03-29 00:00:00 13.1 8 Oeste 12 Oeste 0 -- -- 90
2019-03-28 23:00:00 13.2 6 Sudoeste 12 Oeste 0 -- -- 90
2019-03-28 22:00:00 13 8 Sudoeste 12 Sudoeste 0 -- -- 89
2019-03-28 21:00:00 13.2 4 Oeste 10 Sudoeste 0 -- -- 90
2019-03-28 20:00:00 13.5 6 Oeste 12 Oeste 0.4 -- -- 90
2019-03-28 19:00:00 14.4 5 Este 9 Nordeste 5.4 -- -- 93
2019-03-28 18:00:00 14.8 5 Este 9 Este 0.4 -- -- 93
2019-03-28 17:00:00 14.8 4 Nordeste 13 Nordeste 0.2 -- -- 93
2019-03-28 16:00:00 14.9 6 Nordeste 12 Nordeste 1.2 -- -- 93
2019-03-28 15:00:00 15 7 Este 11 Este 0.6 -- -- 91
2019-03-28 14:00:00 15.2 3 Este 13 Este 1 -- -- 89
2019-03-28 13:00:00 15.7 9 Este 17 Este 0 -- -- 84
2019-03-28 12:00:00 16.6 9 Este 18 Este 0 -- -- 79
2019-03-28 11:00:00 16.4 8 Este 13 Este 0 -- -- 79
2019-03-28 10:00:00 16.4 4 Este 14 Este 0 -- -- 74
2019-03-28 09:00:00 16.3 3 Nordeste 8 Oeste 0 -- -- 76
2019-03-28 08:00:00 12.3 8 Sudoeste 18 Oeste 0 -- -- 76
2019-03-28 07:00:00 11.4 14 Oeste 20 Oeste 0 -- -- 79
2019-03-28 06:00:00 11.5 10 Oeste 15 Oeste 0 -- -- 80
2019-03-28 05:00:00 11.9 10 Sudoeste 21 Oeste 0 -- -- 79
2019-03-28 04:00:00 11.7 10 Oeste 16 Oeste 0 -- -- 82
2019-03-28 03:00:00 12.4 13 Oeste 18 Oeste 0 -- -- 81
2019-03-28 02:00:00 12.4 14 Oeste 21 Oeste 0 -- -- 84
2019-03-28 01:00:00 12.2 12 Oeste 17 Oeste 0 -- -- 87
2019-03-28 00:00:00 12.6 7 Sudoeste 13 Oeste 0 -- -- 90
2019-03-27 23:00:00 13.1 6 Sudoeste 10 Sudoeste 0 -- -- 90
2019-03-27 22:00:00 13.4 3 Oeste 9 Oeste 0 -- -- 89
2019-03-27 21:00:00 14.2 3 Noroeste 14 Norte 0 -- -- 87
2019-03-27 20:00:00 14.7 6 Norte 17 Noroeste 0 -- -- 86
2019-03-27 19:00:00 15.3 8 Norte 15 Norte 0 -- -- 86
2019-03-27 18:00:00 15.7 0 Calma 12 Oeste 0.2 -- -- 90
2019-03-27 17:00:00 15.2 4 Oeste 14 Este 1.6 -- -- 90
2019-03-27 16:00:00 15 10 Este 19 Este 2.6 -- -- 93
2019-03-27 15:00:00 15.2 11 Este 27 Este 9 -- -- 91
2019-03-27 14:00:00 16.9 13 Este 23 Este 0.2 -- -- 80
2019-03-27 13:00:00 17.9 12 Sudoeste 23 Norte 0 -- -- 75
2019-03-27 12:00:00 21.2 14 Norte 25 Noroeste 0 -- -- 59
2019-03-27 11:00:00 19.8 13 Norte 27 Norte 0 -- -- 63
2019-03-27 10:00:00 17.5 12 Norte 20 Noroeste 0 -- -- 73
2019-03-27 09:00:00 15.8 8 Noroeste 15 Norte 0 -- -- 79
2019-03-27 08:00:00 15.7 8 Noroeste 21 Noroeste 0 -- -- 79
2019-03-27 07:00:00 14 8 Noroeste 21 Noroeste 0 -- -- 81
2019-03-27 06:00:00 13 6 Oeste 15 Oeste 0 -- -- 78
2019-03-27 05:00:00 14.6 7 Noroeste 22 Noroeste 0 -- -- 76
2019-03-27 04:00:00 15.1 10 Noroeste 21 Noroeste 0 -- -- 72
2019-03-27 03:00:00 15.2 12 Oeste 24 Noroeste 0 -- -- 72
2019-03-27 02:00:00 15.1 14 Oeste 24 Oeste 0 -- -- 73
2019-03-27 01:00:00 14.6 13 Oeste 22 Noroeste 0 -- -- 70
2019-03-27 00:00:00 13 3 Oeste 14 Oeste 0 -- -- 78